Data for 02/09/2017

Time Sea-Level Adjusted Pressure Absolute Pressure Temperature Relative Humidity Dew Point   
(mb) (inHg) (mb) (inHg) (C) (F) (%) (C) (F)
00:05 1013 29.91 842 24.86 1.3 34.3 77 -2.3 27.8
00:10 1013 29.91 842 24.86 1.3 34.3 77 -2.3 27.9
00:15 1013 29.91 842 24.86 1.3 34.4 77 -2.2 28
00:20 1013 29.91 842 24.86 1.3 34.4 77 -2.2 28
00:25 1013 29.91 842 24.86 1.4 34.6 77 -2.2 28
00:30 1013 29.91 842 24.86 1.5 34.7 78 -1.9 28.5
00:35 1013 29.91 842 24.86 1.3 34.4 78 -2.1 28.2
00:40 1013 29.91 842 24.86 1.5 34.6 77 -2.2 28.1
00:45 1013 29.91 842 24.86 1.6 34.8 78 -1.8 28.7
00:50 1013 29.91 842 24.86 1.5 34.8 78 -1.9 28.6
00:55 1013 29.91 842 24.86 1.6 34.8 77 -2 28.4
01:00 1012 29.88 842 24.86 1.9 35.4 76 -1.9 28.5
01:05 1013 29.91 842 24.86 1.9 35.3 76 -1.9 28.6
01:10 1013 29.91 842 24.86 2.1 35.8 73 -2.3 27.9
01:15 1013 29.91 842 24.86 2.5 36.4 71 -2.2 28
01:20 1012 29.88 842 24.86 2.6 36.7 71 -2 28.3
01:25 1012 29.88 842 24.86 2.7 36.9 71 -2.1 28.2
01:30 1012 29.88 842 24.86 2.8 37 71 -2 28.4
01:35 1012 29.88 842 24.86 2.7 36.8 70 -2.2 28
01:40 1012 29.88 842 24.86 2.8 37 71 -2 28.4
01:45 1012 29.88 842 24.86 2.8 37 71 -2 28.4
01:50 1012 29.88 842 24.86 2.8 37.1 71 -1.8 28.7
01:55 1012 29.88 842 24.86 2.7 36.9 73 -1.7 28.9
02:00 1012 29.88 842 24.86 2.7 36.9 71 -2 28.4
02:05 1012 29.88 842 24.86 2.9 37.2 71 -1.9 28.6
02:10 1012 29.88 842 24.86 3 37.4 70 -2 28.4
02:15 1012 29.88 842 24.86 3.1 37.5 70 -1.9 28.5
02:20 1013 29.91 842 24.86 3.1 37.5 71 -1.6 29.1
02:25 1012 29.88 842 24.86 2.8 37 73 -1.5 29.3
02:30 1012 29.88 842 24.86 2.7 36.9 73 -1.6 29.2
02:35 1012 29.88 842 24.86 2.6 36.7 76 -1.2 29.8
02:40 1012 29.88 841 24.83 2.4 36.3 76 -1.5 29.3
02:45 1012 29.88 841 24.83 2.6 36.7 74 -1.5 29.2
02:50 1012 29.88 841 24.83 2.9 37.1 74 -1.4 29.5
02:55 1012 29.88 841 24.83 3 37.4 74 -1.2 29.8
03:00 1012 29.88 841 24.83 2.9 37.1 74 -1.3 29.6
03:05 1012 29.88 841 24.83 2.7 36.9 76 -1.1 30.1
03:10 1012 29.88 841 24.83 2.7 36.9 77 -1 30.2
03:15 1012 29.88 841 24.83 3 37.4 75 -1.1 30.1
03:20 1012 29.88 841 24.83 3.1 37.6 75 -0.8 30.5
03:25 1012 29.88 841 24.83 3.3 38 75 -0.7 30.7
03:30 1012 29.88 841 24.83 3.4 38.1 75 -0.6 30.9
03:35 1011 29.85 841 24.83 3.4 38.2 75 -0.5 31.1
03:40 1011 29.85 841 24.83 3.3 38 77 -0.3 31.4
03:45 1011 29.85 840 24.81 3.1 37.6 77 -0.5 31.2
03:50 1011 29.85 841 24.83 2.9 37.3 78 -0.6 31
03:55 1011 29.85 841 24.83 3.1 37.5 76 -0.7 30.7
04:00 1011 29.85 840 24.81 3.1 37.7 77 -0.6 31
04:05 1011 29.85 840 24.81 3.1 37.5 77 -0.6 30.9
04:10 1011 29.85 840 24.81 3.2 37.8 75 -0.7 30.7
04:15 1011 29.85 840 24.81 3.4 38.2 75 -0.6 31
04:20 1011 29.85 840 24.81 3.6 38.5 74 -0.5 31.1
04:25 1011 29.85 840 24.81 3.5 38.3 75 -0.5 31.1
04:30 1011 29.85 840 24.81 3.6 38.5 75 -0.5 31.1
04:35 1011 29.85 840 24.81 3.8 38.8 73 -0.6 30.9
04:40 1011 29.85 840 24.81 3.9 39.1 73 -0.5 31.1
04:45 1011 29.85 840 24.81 4.2 39.6 72 -0.4 31.3
04:50 1011 29.85 840 24.81 3.9 39.1 73 -0.4 31.3
04:55 1011 29.85 840 24.81 4 39.1 73 -0.4 31.2
05:00 1011 29.85 840 24.81 3.9 38.9 74 -0.3 31.4
05:05 1011 29.85 840 24.81 3.8 38.8 75 -0.4 31.4
05:10 1011 29.85 840 24.81 3.7 38.6 75 -0.4 31.3
05:15 1011 29.85 840 24.81 3.7 38.7 75 -0.3 31.4
05:20 1011 29.85 840 24.81 3.7 38.7 75 -0.4 31.3
05:25 1010 29.83 840 24.81 3.8 38.9 74 -0.4 31.3
05:30 1010 29.83 840 24.81 4.3 39.7 71 -0.6 31
05:35 1010 29.83 840 24.81 4.6 40.3 69 -0.5 31.1
05:40 1010 29.83 840 24.81 4.4 39.8 76 0.5 32.8
05:45 1010 29.83 839 24.78 3.7 38.6 76 -0.1 31.8
05:50 1010 29.83 839 24.78 3.9 39 75 -0.1 31.7
05:55 1010 29.83 839 24.78 4.5 40.1 72 -0.2 31.7
06:00 1010 29.83 839 24.78 4.7 40.4 71 -0.1 31.9
06:05 1010 29.83 839 24.78 4.6 40.3 73 0.1 32.2
06:10 1010 29.83 839 24.78 4.6 40.3 70 -0.4 31.2
06:15 1010 29.83 839 24.78 5.1 41.1 70 0 32
06:20 1010 29.83 839 24.78 4.6 40.3 74 0.3 32.6
06:25 1010 29.83 839 24.78 4.3 39.7 74 0.1 32.2
06:30 1010 29.83 839 24.78 4.4 40 72 -0.1 31.8
06:35 1010 29.83 839 24.78 4.9 40.8 69 -0.2 31.6
06:40 1010 29.83 839 24.78 4.9 40.9 72 0.3 32.5
06:45 1010 29.83 839 24.78 5 41.1 67 -0.6 30.8
06:50 1010 29.83 839 24.78 6 42.7 65 -0.1 31.8
06:55 1010 29.83 839 24.78 5.9 42.6 67 0.2 32.4
07:00 1010 29.83 839 24.78 5.4 41.8 70 0.4 32.7
07:05 1010 29.83 839 24.78 5.5 41.9 69 0.3 32.5
07:10 1010 29.83 839 24.78 5.1 41.1 72 0.5 32.9
07:15 1010 29.83 839 24.78 4.7 40.5 67 -0.9 30.4
07:20 1010 29.83 839 24.78 6.4 43.4 62 -0.3 31.5
07:25 1010 29.83 839 24.78 6.5 43.6 59 -0.9 30.4
07:30 1010 29.83 839 24.78 6.5 43.7 65 0.5 32.9
07:35 1010 29.83 839 24.78 6.3 43.4 61 -0.7 30.8
07:40 1010 29.83 839 24.78 7.1 44.8 56 -1.1 30
07:45 1010 29.83 839 24.78 7.8 46.1 53 -1 30.2
07:50 1010 29.83 839 24.78 8.3 46.9 53 -0.8 30.5
07:55 1010 29.83 839 24.78 8.7 47.6 52 -0.7 30.7
08:00 1010 29.83 839 24.78 8.9 48.1 51 -0.7 30.8
08:05 1010 29.83 839 24.78 9 48.2 51 -0.6 31
08:10 1010 29.83 839 24.78 8.9 48.1 52 -0.4 31.2
08:15 1010 29.83 839 24.78 8.8 47.8 52 -0.5 31.1
08:20 1010 29.83 839 24.78 8.8 47.9 52 -0.6 31
08:25 1010 29.83 839 24.78 9 48.1 52 -0.5 31.2
08:30 1010 29.83 839 24.78 8.9 48 51 -0.7 30.8
08:35 1010 29.83 839 24.78 9.2 48.6 51 -0.4 31.2
08:40 1010 29.83 839 24.78 9.1 48.4 52 -0.3 31.5
08:45 1010 29.83 839 24.78 8.7 47.7 53 -0.3 31.5
08:50 1010 29.83 839 24.78 8.6 47.5 53 -0.4 31.2
08:55 1010 29.83 839 24.78 8.7 47.6 53 -0.3 31.5
09:00 1010 29.83 840 24.81 8.8 47.8 53 -0.3 31.5
09:05 1010 29.83 840 24.81 8.8 47.8 53 -0.2 31.7
09:10 1010 29.83 839 24.78 8.8 47.9 53 -0.2 31.7
09:15 1010 29.83 839 24.78 8.8 47.9 53 -0.1 31.8
09:20 1010 29.83 839 24.78 8.5 47.3 57 0.4 32.8
09:25 1010 29.83 839 24.78 8.2 46.7 58 0.3 32.6
09:30 1010 29.83 839 24.78 8.2 46.8 55 -0.2 31.7
09:35 1010 29.83 839 24.78 8.7 47.7 56 0.5 32.8
09:40 1010 29.83 839 24.78 8.9 48.1 54 0.2 32.4
09:45 1010 29.83 839 24.78 8.6 47.4 56 0.2 32.4
09:50 1010 29.83 839 24.78 8.5 47.3 59 1 33.7
09:55 1010 29.83 839 24.78 7.8 46 61 0.7 33.3
10:00 1010 29.83 839 24.78 7.4 45.3 60 0.2 32.4
10:05 1010 29.83 839 24.78 8.1 46.6 57 0.1 32.2
10:10 1010 29.83 839 24.78 8.3 47 60 1.2 34.1
10:15 1010 29.83 839 24.78 7.7 45.9 60 0.4 32.8
10:20 1010 29.83 839 24.78 8.1 46.5 58 0.4 32.6
10:25 1010 29.83 839 24.78 8.2 46.7 58 0.5 32.9
10:30 1009 29.8 839 24.78 8 46.4 59 0.5 33
10:35 1009 29.8 839 24.78 7.9 46.2 58 0.1 32.2
10:40 1009 29.8 839 24.78 7.7 45.9 60 0.6 33
10:45 1009 29.8 839 24.78 7.8 46.1 57 -0.1 31.8
10:50 1009 29.8 839 24.78 7.9 46.1 59 0.4 32.7
10:55 1009 29.8 839 24.78 7.7 45.9 57 -0.3 31.5
11:00 1009 29.8 839 24.78 8.4 47.1 54 -0.3 31.5
11:05 1010 29.83 839 24.78 8.7 47.7 57 0.7 33.2
11:10 1010 29.83 839 24.78 8.6 47.5 56 0.3 32.5
11:15 1009 29.8 839 24.78 8.8 47.8 54 0.1 32.2
11:20 1009 29.8 839 24.78 9.2 48.5 53 0.1 32.2
11:25 1009 29.8 839 24.78 9.4 49 55 0.8 33.5
11:30 1009 29.8 838 24.75 8.9 47.9 55 0.4 32.7
11:35 1009 29.8 838 24.75 9 48.2 50 -0.7 30.7
11:40 1009 29.8 838 24.75 9.6 49.4 50 -0.2 31.6
11:45 1009 29.8 838 24.75 9.8 49.7 48 -0.8 30.6
11:50 1009 29.8 838 24.75 10 50.1 47 -0.7 30.7
11:55 1009 29.8 838 24.75 10.4 50.7 46 -0.8 30.6
12:00 1008 29.77 838 24.75 10.9 51.5 44 -0.7 30.7
12:05 1008 29.77 838 24.75 11.5 52.6 46 0.2 32.4
12:10 1008 29.77 838 24.75 10.3 50.6 51 0.7 33.2
12:15 1008 29.77 837 24.72 9 48.3 53 -0.1 31.8
12:20 1008 29.77 837 24.72 8.9 48.1 53 -0 32
12:25 1008 29.77 837 24.72 9.2 48.6 49 -0.8 30.6
12:30 1008 29.77 837 24.72 9.9 49.7 50 -0.1 31.8
12:35 1008 29.77 837 24.72 10.1 50.1 49 0 32
12:40 1008 29.77 837 24.72 10.2 50.3 48 -0.4 31.3
12:45 1008 29.77 837 24.72 10.5 50.8 46 -0.5 31.1
12:50 1008 29.77 837 24.72 10.6 51.1 46 -0.4 31.3
12:55 1008 29.77 837 24.72 10.8 51.5 47 -0.1 31.8
13:00 1008 29.77 837 24.72 10.9 51.6 46 -0.1 31.8
13:05 1008 29.77 837 24.72 10.8 51.4 48 0.1 32.2
13:10 1008 29.77 837 24.72 10.7 51.2 45 -0.6 30.9
13:15 1008 29.77 837 24.72 10.8 51.4 48 0.1 32.3
13:20 1007 29.74 837 24.72 10.8 51.4 49 0.4 32.7
13:25 1007 29.74 837 24.72 10.4 50.8 50 0.6 33.1
13:30 1007 29.74 837 24.72 10 50 50 0.1 32.1
13:35 1007 29.74 836 24.69 10.1 50.1 49 -0.1 31.9
13:40 1007 29.74 836 24.69 10 50.1 50 -0 32
13:45 1007 29.74 836 24.69 9.9 49.9 50 0.1 32.2
13:50 1007 29.74 836 24.69 9.7 49.4 50 -0.2 31.7
13:55 1007 29.74 836 24.69 9.6 49.2 50 -0.2 31.6
14:00 1007 29.74 836 24.69 9.6 49.2 51 -0.1 31.8
14:05 1007 29.74 836 24.69 9.6 49.3 50 -0.3 31.5
14:10 1007 29.74 836 24.69 9.8 49.6 51 0 32.1
14:15 1007 29.74 836 24.69 9.9 49.8 47 -0.8 30.6
14:20 1007 29.74 836 24.69 10.6 51 43 -1.3 29.7
14:25 1007 29.74 836 24.69 11 51.7 44 -0.7 30.8
14:30 1007 29.74 836 24.69 11 51.8 44 -0.6 30.9
14:35 1007 29.74 836 24.69 10.9 51.7 45 -0.6 30.9
14:40 1007 29.74 836 24.69 10.9 51.6 45 -0.6 30.9
14:45 1007 29.74 836 24.69 11 51.7 44 -0.8 30.6
14:50 1007 29.74 836 24.69 11 51.8 46 -0 32
14:55 1007 29.74 836 24.69 10.5 50.8 47 -0.2 31.6
15:00 1007 29.74 836 24.69 10.4 50.8 47 -0.4 31.2
15:05 1007 29.74 836 24.69 10.4 50.8 49 0.2 32.4
15:10 1007 29.74 836 24.69 9.9 49.9 49 -0.2 31.7
15:15 1007 29.74 836 24.69 9.8 49.6 49 -0.4 31.3
15:20 1007 29.74 836 24.69 9.9 49.8 47 -0.8 30.5
15:25 1007 29.74 836 24.69 10.3 50.5 48 -0.2 31.6
15:30 1007 29.74 836 24.69 10.3 50.5 46 -0.7 30.8
15:35 1007 29.74 836 24.69 10.5 50.9 46 -0.7 30.7
15:40 1007 29.74 836 24.69 10.7 51.2 46 -0.6 31
15:45 1007 29.74 836 24.69 10.8 51.4 46 -0.5 31.2
15:50 1007 29.74 836 24.69 10.7 51.2 47 -0.2 31.7
15:55 1007 29.74 836 24.69 10.5 50.9 48 -0.1 31.7
16:00 1007 29.74 836 24.69 10.3 50.5 48 -0.1 31.9
16:05 1007 29.74 836 24.69 10.2 50.4 48 -0.3 31.5
16:10 1007 29.74 836 24.69 10.4 50.7 48 -0.1 31.9
16:15 1007 29.74 836 24.69 10.3 50.6 49 0.2 32.3
16:20 1007 29.74 836 24.69 10 50 50 0.2 32.3
16:25 1007 29.74 836 24.69 9.9 49.8 50 0.1 32.1
16:30 1007 29.74 836 24.69 9.8 49.7 51 0.2 32.4
16:35 1007 29.74 836 24.69 9.8 49.7 51 0.2 32.4
16:40 1007 29.74 836 24.69 9.9 49.7 51 0.3 32.6
16:45 1007 29.74 836 24.69 9.8 49.6 52 0.3 32.6
16:50 1007 29.74 836 24.69 9.8 49.7 51 0.2 32.4
16:55 1007 29.74 836 24.69 9.9 49.7 51 0.2 32.4
17:00 1006 29.71 836 24.69 9.8 49.6 51 0.3 32.5
17:05 1006 29.71 836 24.69 9.7 49.4 52 0.2 32.4
17:10 1006 29.71 836 24.69 9.7 49.5 50 -0.1 31.8
17:15 1006 29.71 835 24.66 10.1 50.1 50 0.2 32.3
17:20 1006 29.71 836 24.69 10 50 50 0.2 32.3
17:25 1006 29.71 836 24.69 10 50 51 0.3 32.6
17:30 1006 29.71 835 24.66 9.9 49.9 51 0.3 32.6
17:35 1006 29.71 835 24.66 9.5 49.1 52 0.2 32.4
17:40 1006 29.71 835 24.66 9.7 49.4 50 -0.2 31.7
17:45 1006 29.71 835 24.66 10.2 50.3 49 0.1 32.2
17:50 1006 29.71 835 24.66 10.3 50.6 49 0.1 32.2
17:55 1006 29.71 835 24.66 10.4 50.7 49 0.3 32.5
18:00 1006 29.71 835 24.66 10.3 50.5 50 0.4 32.6
18:05 1006 29.71 835 24.66 10.1 50.1 50 0.2 32.4
18:10 1006 29.71 835 24.66 10 50 51 0.3 32.5
18:15 1006 29.71 835 24.66 9.2 48.6 55 0.7 33.3
18:20 1006 29.71 835 24.66 8.5 47.3 55 0.1 32.1
18:25 1006 29.71 835 24.66 9.1 48.4 52 -0.3 31.5
18:30 1006 29.71 835 24.66 9.7 49.5 51 0.1 32.1
18:35 1006 29.71 835 24.66 9.9 49.8 50 -0.1 31.8
18:40 1006 29.71 835 24.66 10.1 50.2 50 0.1 32.1
18:45 1006 29.71 835 24.66 10.2 50.3 50 0.1 32.3
18:50 1006 29.71 835 24.66 10 50 51 0.3 32.6
18:55 1006 29.71 835 24.66 9.4 48.9 53 0.2 32.4
19:00 1006 29.71 835 24.66 9.5 49.1 49 -0.7 30.8
19:05 1006 29.71 835 24.66 10.9 51.7 43 -1 30.1
19:10 1005 29.68 835 24.66 10.8 51.4 47 -0 31.9
19:15 1005 29.68 835 24.66 10.1 50.1 50 0.1 32.2
19:20 1005 29.68 834 24.63 10.3 50.5 44 -1.4 29.5
19:25 1005 29.68 834 24.63 10.6 51.1 46 -0.6 31
19:30 1005 29.68 834 24.63 10.8 51.5 42 -1.5 29.2
19:35 1005 29.68 834 24.63 11.3 52.3 42 -1 30.1
19:40 1005 29.68 834 24.63 11.3 52.3 40 -1.6 29.1
19:45 1005 29.68 834 24.63 11.6 52.8 41 -1.1 30
19:50 1005 29.68 834 24.63 11.2 52.2 42 -1.2 29.8
19:55 1005 29.68 834 24.63 11.2 52.1 42 -1.2 29.9
20:00 1005 29.68 834 24.63 11.3 52.3 43 -0.8 30.5
20:05 1005 29.68 834 24.63 11.3 52.3 44 -0.6 30.9
20:10 1005 29.68 834 24.63 11.1 52 45 -0.3 31.5
20:15 1005 29.68 834 24.63 10.8 51.5 46 -0.4 31.2
20:20 1005 29.68 834 24.63 10.7 51.3 47 -0.2 31.7
20:25 1005 29.68 834 24.63 10.5 51 47 -0.3 31.5
20:30 1005 29.68 834 24.63 10.4 50.7 46 -0.6 31
20:35 1005 29.68 834 24.63 10.5 50.8 46 -0.5 31.1
20:40 1005 29.68 834 24.63 10.4 50.6 46 -0.6 31
20:45 1005 29.68 834 24.63 10.4 50.7 46 -0.6 31
20:50 1005 29.68 834 24.63 10.4 50.7 46 -0.7 30.7
20:55 1005 29.68 834 24.63 10.5 50.8 46 -0.6 30.9
21:00 1004 29.65 834 24.63 10.5 50.8 45 -1 30.2
21:05 1004 29.65 834 24.63 10.6 51 44 -1 30.2
21:10 1004 29.65 834 24.63 10.6 51 45 -0.7 30.7
21:15 1004 29.65 834 24.63 10.5 50.9 46 -0.7 30.8
21:20 1004 29.65 834 24.63 10.3 50.6 46 -0.7 30.8
21:25 1004 29.65 834 24.63 10.3 50.6 46 -0.6 30.9
21:30 1004 29.65 834 24.63 10.3 50.5 46 -0.7 30.8
21:35 1005 29.68 834 24.63 10.1 50.2 47 -0.6 30.8
21:40 1005 29.68 834 24.63 10.3 50.5 46 -0.7 30.7
21:45 1005 29.68 834 24.63 10 49.9 50 0 32
21:50 1005 29.68 834 24.63 9.1 48.4 52 -0.2 31.6
21:55 1005 29.68 834 24.63 9.1 48.3 51 -0.4 31.3
22:00 1005 29.68 834 24.63 9.3 48.7 50 -0.5 31.2
22:05 1005 29.68 834 24.63 9.4 48.9 49 -0.7 30.7
22:10 1005 29.68 834 24.63 9.7 49.5 48 -0.7 30.8
22:15 1005 29.68 834 24.63 10 50.1 46 -1 30.3
22:20 1005 29.68 834 24.63 10.1 50.2 46 -0.9 30.4
22:25 1005 29.68 834 24.63 10 49.9 47 -0.7 30.7
22:30 1005 29.68 834 24.63 10.1 50.1 46 -1 30.2
22:35 1005 29.68 834 24.63 10.2 50.3 46 -0.9 30.4
22:40 1005 29.68 834 24.63 9.7 49.5 48 -0.8 30.6
22:45 1005 29.68 834 24.63 9.7 49.4 47 -0.9 30.3
22:50 1005 29.68 834 24.63 9.9 49.8 46 -1.2 29.9
22:55 1005 29.68 834 24.63 10.1 50.1 46 -0.9 30.4
23:00 1005 29.68 834 24.63 9.7 49.4 47 -1 30.2
23:05 1005 29.68 834 24.63 9.7 49.4 47 -1 30.3
23:10 1005 29.68 834 24.63 9.4 48.9 48 -0.9 30.3
23:15 1005 29.68 834 24.63 9.5 49.1 46 -1.5 29.4
23:20 1005 29.68 834 24.63 9.9 49.9 46 -1.1 30
23:25 1005 29.68 834 24.63 9.6 49.4 48 -0.8 30.6
23:30 1005 29.68 834 24.63 9.2 48.5 49 -1 30.2
23:35 1005 29.68 834 24.63 9.4 49 47 -1.3 29.7
23:40 1005 29.68 834 24.63 9.8 49.6 47 -1.1 30.1
23:45 1005 29.68 834 24.63 9.8 49.6 47 -0.9 30.3
23:50 1005 29.68 834 24.63 9.5 49.1 48 -1 30.2
23:55 1005 29.68 835 24.66 9.4 48.8 49 -0.7 30.7
24:00 1005 29.68 835 24.66 9.2 48.6 48 -1.1 29.9